Lake Charles Regional Airport
KLCH : now visible

Airfield :











YOU CAN JOIN US ON...

 
LOGIN :

Register | Disclaimer

   EN    FR    IT 

 









Legend :    VFR   Marginal VFR   IFR   Intensive IFR   Very Intensive IFR
Visi :
Ceiling :
>= 8 km
>= 3000ft
5 to 8 km
1000 to 3000 ft
1500m to 5 km
500 to 1000 ft
800 to 1500m
200 to 500 ft
< 800m
< 200 ft
Symbols :   Thunderstorms  Fog  Heavy snow  Heavy precipitations  Wind > 20 kt






- Airport Elevation : 15 ft
- IATA code : LCH


KLCH - Lake Charles Regional

CURRENT METAR :
  • 080553Z AUTO 13009KT 10SM OVC039 18/17 A3008 RMK AO2 SLP193 T01830172 10200 20178 402500117 58001

EXPIRED METARs :
  • 080453Z 13009KT 8SM OVC038 19/17 A3008 RMK AO2 SLP193 T01890172
  • 080353Z 13009KT 5SM BR OVC047 19/17 A3008 RMK AO2 SLP194 T01890172

TAF KLCH
Valid from the 08 at 06:00 until the 09 at 06:00 UTC


080520Z 0806/0906 12010KT P6SM OVC035
FM080800 12011KT P6SM OVC008
TEMPO 0808/0812 2SM BR OVC004
FM081200 15014G22KT 4SM BR VCSH OVC004
FM081600 18017G25KT P6SM -SHRA VCTS OVC008CB
PROB30 0816/0818 4SM -TSRA BR OVC004CB
FM081800 19016G23KT 4SM SHRA VCTS OVC030CB
FM090300 30007KT P6SM OVC015
KZHU FIR / North America



MET'MAP, your aeronautical weather chart ! - Copyright ORBIFLY December 2007 - Disclaimer

ORBIFLY MET'MAP TEAM :

Programming & Development : Alexandra Zaïnal
Original concept : Baudouin d'Aumeries
Technical & hardware support : Manuel Goepfert
Assistance : Marc-Olivier Méhu




SOURCES & CREDITS :

   NOAA       Earth
Advisory